Time;durP1;ratioP1;P1;durP2;ratioP2;P2;SDS_P1;SDS_P2;PMS_P1;PMS_P2;Temp;Humidity;BMP_temperature;BMP_pressure;BME280_temperature;BME280_humidity;BME280_pressure;Samples;Min_cycle;Max_cycle;Signal;HPM_P1;HPM_P2
2021/09/28 00:00:10;;;;;;;11.85;2.67;;;14.00;99.90;;;;;;4841334;29;20189;-76
2021/09/28 00:02:36;;;;;;;10.75;2.53;;;14.00;99.90;;;;;;4841619;29;20223;-76
2021/09/28 00:05:02;;;;;;;9.27;2.58;;;14.00;99.90;;;;;;4841075;29;20561;-76
2021/09/28 00:07:28;;;;;;;12.93;2.92;;;14.00;99.90;;;;;;4824695;29;20437;-76
2021/09/28 00:09:53;;;;;;;7.53;2.28;;;14.00;99.90;;;;;;4841351;29;20483;-76
2021/09/28 00:12:19;;;;;;;9.43;2.40;;;14.00;99.90;;;;;;4841130;29;20045;-76
2021/09/28 00:14:45;;;;;;;14.50;3.35;;;14.00;99.90;;;;;;4824718;29;20054;-76
2021/09/28 00:17:11;;;;;;;10.45;2.80;;;14.00;99.90;;;;;;4841065;29;20037;-76
2021/09/28 00:19:38;;;;;;;12.55;3.17;;;14.00;99.90;;;;;;4841498;29;20057;-76
2021/09/28 00:22:04;;;;;;;11.27;2.60;;;14.00;99.90;;;;;;4841352;29;20029;-76
2021/09/28 00:24:30;;;;;;;8.32;2.65;;;13.90;99.90;;;;;;4840969;29;20528;-76
2021/09/28 00:26:56;;;;;;;14.48;2.88;;;13.90;99.90;;;;;;4840784;29;20384;-76
2021/09/28 00:29:22;;;;;;;8.05;2.63;;;13.90;99.90;;;;;;4840689;29;20048;-76
2021/09/28 00:31:47;;;;;;;7.68;2.33;;;13.90;99.90;;;;;;4840970;29;20018;-76
2021/09/28 00:34:13;;;;;;;6.40;2.08;;;13.90;99.90;;;;;;4840757;29;20438;-76
2021/09/28 00:36:39;;;;;;;11.80;3.08;;;13.90;99.90;;;;;;4840652;29;20018;-76
2021/09/28 00:39:04;;;;;;;13.18;2.40;;;13.90;99.90;;;;;;4840661;29;20392;-76
2021/09/28 00:41:30;;;;;;;9.40;2.38;;;13.90;99.90;;;;;;4840431;29;20026;-76
2021/09/28 00:43:57;;;;;;;9.00;2.78;;;13.90;99.90;;;;;;4842348;29;20041;-76
2021/09/28 00:46:24;;;;;;;12.65;2.15;;;13.90;99.90;;;;;;4840415;29;20057;-76
2021/09/28 00:48:51;;;;;;;11.25;2.13;;;14.00;99.90;;;;;;4840633;29;20046;-76
2021/09/28 00:51:18;;;;;;;11.50;2.33;;;14.00;99.90;;;;;;4840516;29;20556;-76
2021/09/28 00:53:47;;;;;;;11.13;1.60;;;14.00;99.90;;;;;;4840500;29;20030;-76
2021/09/28 00:56:17;;;;;;;6.78;2.45;;;13.90;99.90;;;;;;4841385;29;20112;-76
2021/09/28 00:58:43;;;;;;;7.35;1.67;;;14.00;99.90;;;;;;4841319;29;20022;-76
2021/09/28 01:01:10;;;;;;;6.90;2.10;;;13.90;99.90;;;;;;4841388;29;20108;-76
2021/09/28 01:03:36;;;;;;;8.07;2.05;;;13.90;99.90;;;;;;4841155;29;20026;-76
2021/09/28 01:06:02;;;;;;;8.07;1.70;;;13.90;99.90;;;;;;4841577;29;20022;-76
2021/09/28 01:08:28;;;;;;;9.02;2.60;;;13.90;99.90;;;;;;4841142;29;20101;-76
2021/09/28 01:10:55;;;;;;;10.68;2.03;;;13.90;99.90;;;;;;4841170;29;20037;-76
2021/09/28 01:13:22;;;;;;;9.95;2.30;;;13.90;99.90;;;;;;4840354;29;21026;-76
2021/09/28 01:16:09;;;;;;;14.57;2.53;;;13.90;99.90;;;;;;4840387;29;20182;-76
2021/09/28 01:18:36;;;;;;;9.60;2.30;;;13.90;99.90;;;;;;4840126;29;20437;-76
2021/09/28 01:21:04;;;;;;;10.48;2.42;;;13.80;99.90;;;;;;4840080;29;20022;-76
2021/09/28 01:23:30;;;;;;;8.85;2.22;;;13.90;99.90;;;;;;4840275;29;20114;-76
2021/09/28 01:25:56;;;;;;;7.72;2.25;;;13.90;99.90;;;;;;4839904;29;20155;-76
2021/09/28 01:28:22;;;;;;;8.13;1.70;;;13.90;99.90;;;;;;4820642;29;20121;-76
2021/09/28 01:30:48;;;;;;;9.57;2.00;;;13.90;99.90;;;;;;4836877;29;20182;-76
2021/09/28 01:33:15;;;;;;;9.30;2.10;;;13.90;99.90;;;;;;4839930;29;20523;-76
2021/09/28 01:35:41;;;;;;;11.23;1.88;;;13.90;99.90;;;;;;4839884;29;20038;-76
2021/09/28 01:38:08;;;;;;;13.07;2.13;;;13.90;99.90;;;;;;4840048;29;20101;-76
2021/09/28 01:40:34;;;;;;;10.85;1.70;;;13.90;99.90;;;;;;4839864;29;20049;-76
2021/09/28 01:43:10;;;;;;;16.45;2.42;;;13.90;99.90;;;;;;4839753;29;20510;-76
2021/09/28 01:45:38;;;;;;;12.23;2.28;;;13.90;99.90;;;;;;4839946;29;20654;-76
2021/09/28 01:48:04;;;;;;;11.63;2.22;;;13.90;99.90;;;;;;4839641;29;20030;-76
2021/09/28 01:50:33;;;;;;;9.25;1.95;;;13.90;99.90;;;;;;4839642;29;20037;-76
2021/09/28 01:52:59;;;;;;;11.38;1.90;;;13.90;99.90;;;;;;4839653;29;20030;-76
2021/09/28 01:55:25;;;;;;;6.65;1.75;;;13.80;99.90;;;;;;4839595;29;20065;-76
2021/09/28 01:57:56;;;;;;;10.45;2.30;;;13.80;99.90;;;;;;4839682;29;20036;-76
2021/09/28 02:00:25;;;;;;;9.38;1.90;;;13.80;99.90;;;;;;4839680;29;20179;-76
2021/09/28 02:02:51;;;;;;;11.50;2.30;;;13.70;99.90;;;;;;4839730;29;20375;-76
2021/09/28 02:05:17;;;;;;;9.45;1.60;;;13.70;99.90;;;;;;4839518;29;20034;-76
2021/09/28 02:07:44;;;;;;;9.35;1.98;;;13.70;99.90;;;;;;4839716;29;20042;-76
2021/09/28 02:10:10;;;;;;;7.97;2.13;;;13.70;99.90;;;;;;4839291;29;20404;-76
2021/09/28 02:12:37;;;;;;;12.57;2.10;;;13.70;99.90;;;;;;4839544;29;20030;-76
2021/09/28 02:15:03;;;;;;;11.18;1.83;;;13.70;99.90;;;;;;4839439;29;20050;-76
2021/09/28 02:17:29;;;;;;;8.52;1.75;;;13.70;99.90;;;;;;4839396;29;20503;-76
2021/09/28 02:19:54;;;;;;;7.15;1.95;;;13.60;99.90;;;;;;4840863;29;20075;-76
2021/09/28 02:22:20;;;;;;;7.80;1.48;;;13.70;99.90;;;;;;4841874;29;20532;-76
2021/09/28 02:24:46;;;;;;;9.45;2.00;;;13.60;99.90;;;;;;4843188;29;20034;-76
2021/09/28 02:27:11;;;;;;;8.77;1.65;;;13.60;99.90;;;;;;4842833;29;20033;-76
2021/09/28 02:29:37;;;;;;;10.10;1.80;;;13.60;99.90;;;;;;4842840;29;20519;-76
2021/09/28 02:32:03;;;;;;;5.63;1.20;;;13.60;99.90;;;;;;4843015;29;20018;-76
2021/09/28 02:34:28;;;;;;;8.40;1.50;;;13.60;99.90;;;;;;4842660;29;20483;-76
2021/09/28 02:36:54;;;;;;;5.63;1.38;;;13.60;99.90;;;;;;4842870;29;20014;-76
2021/09/28 02:39:20;;;;;;;8.27;1.40;;;13.60;99.90;;;;;;4843027;29;20109;-76
2021/09/28 02:41:46;;;;;;;7.97;1.42;;;13.60;99.90;;;;;;4842703;29;20112;-76
2021/09/28 02:44:13;;;;;;;8.23;1.38;;;13.50;99.90;;;;;;4842725;29;20436;-76
2021/09/28 02:46:39;;;;;;;9.88;1.80;;;13.60;99.90;;;;;;4842580;29;20117;-77
2021/09/28 02:49:04;;;;;;;11.40;1.77;;;13.50;99.90;;;;;;4842853;29;20112;-76
2021/09/28 02:51:30;;;;;;;13.15;1.90;;;13.50;99.90;;;;;;4842391;29;20030;-76
2021/09/28 02:53:56;;;;;;;7.88;1.17;;;13.50;99.90;;;;;;4825918;29;20468;-79
2021/09/28 02:56:22;;;;;;;11.88;1.65;;;13.40;99.90;;;;;;4842676;29;20022;-79
2021/09/28 02:58:47;;;;;;;12.93;2.25;;;13.40;99.90;;;;;;4842345;29;20026;-79
2021/09/28 03:01:13;;;;;;;11.80;2.00;;;13.40;99.90;;;;;;4842744;29;20161;-79
2021/09/28 03:03:39;;;;;;;13.90;1.85;;;13.40;99.90;;;;;;4842230;29;20022;-79
2021/09/28 03:06:05;;;;;;;10.18;1.88;;;13.40;99.90;;;;;;4842519;29;20030;-79
2021/09/28 03:08:34;;;;;;;8.77;1.80;;;13.50;99.90;;;;;;4842104;29;20063;-79
2021/09/28 03:11:00;;;;;;;13.65;2.00;;;13.50;99.90;;;;;;4842393;29;20037;-76
2021/09/28 03:13:26;;;;;;;11.15;1.70;;;13.60;99.90;;;;;;4842829;29;20022;-76
2021/09/28 03:15:52;;;;;;;9.82;1.65;;;13.60;99.90;;;;;;4822257;29;20042;-77
2021/09/28 03:18:18;;;;;;;9.57;2.65;;;13.60;99.90;;;;;;4834806;29;20025;-76
2021/09/28 03:20:43;;;;;;;11.10;1.63;;;13.60;99.90;;;;;;4841951;29;20078;-76
2021/09/28 03:23:09;;;;;;;12.98;1.90;;;13.60;99.90;;;;;;4842055;29;20134;-76
2021/09/28 03:25:35;;;;;;;13.15;2.17;;;13.60;99.90;;;;;;4841968;29;20058;-76
2021/09/28 03:28:03;;;;;;;9.38;1.50;;;13.50;99.90;;;;;;4841903;29;20345;-77
2021/09/28 03:30:29;;;;;;;10.05;1.80;;;13.50;99.90;;;;;;4842056;29;20038;-76
2021/09/28 03:32:55;;;;;;;10.45;1.52;;;13.50;99.90;;;;;;4841421;29;20022;-76
2021/09/28 03:35:21;;;;;;;10.32;1.60;;;13.50;99.90;;;;;;4842027;29;20045;-76
2021/09/28 03:37:50;;;;;;;12.18;1.55;;;13.50;99.90;;;;;;4841626;29;20038;-76
2021/09/28 03:40:16;;;;;;;9.63;1.65;;;13.60;99.90;;;;;;4841863;29;20025;-76
2021/09/28 03:42:41;;;;;;;12.13;1.73;;;13.50;99.90;;;;;;4841797;29;20030;-76
2021/09/28 03:45:08;;;;;;;14.02;2.08;;;13.50;99.90;;;;;;4841625;29;20480;-76
2021/09/28 03:47:34;;;;;;;8.45;1.90;;;13.50;99.90;;;;;;4841899;29;20023;-76
2021/09/28 03:49:59;;;;;;;13.30;2.17;;;13.50;99.90;;;;;;4841498;29;20034;-76
2021/09/28 03:52:25;;;;;;;14.95;2.35;;;13.50;99.90;;;;;;4841770;29;20116;-76
2021/09/28 03:54:51;;;;;;;15.52;2.03;;;13.50;99.90;;;;;;4840073;29;20395;-76
2021/09/28 03:57:16;;;;;;;8.98;2.10;;;13.50;99.90;;;;;;4840399;29;20030;-76
2021/09/28 03:59:42;;;;;;;13.75;1.70;;;13.40;99.90;;;;;;4841520;29;20038;-76
2021/09/28 04:02:08;;;;;;;15.20;1.85;;;13.50;99.90;;;;;;4841195;29;20028;-76
2021/09/28 04:04:33;;;;;;;8.90;1.70;;;13.50;99.90;;;;;;4841545;29;20412;-76
2021/09/28 04:06:59;;;;;;;14.80;2.20;;;13.50;99.90;;;;;;4841604;29;20048;-76
2021/09/28 04:09:25;;;;;;;15.32;2.35;;;13.50;99.90;;;;;;4841375;29;20037;-76
2021/09/28 04:11:51;;;;;;;11.45;2.15;;;13.50;99.90;;;;;;4841053;29;20070;-77
2021/09/28 04:14:17;;;;;;;16.83;2.05;;;13.50;99.90;;;;;;4841236;29;20154;-76
2021/09/28 04:16:43;;;;;;;15.30;2.33;;;13.50;99.90;;;;;;4841208;29;20105;-76
2021/09/28 04:19:09;;;;;;;11.73;2.10;;;13.50;99.90;;;;;;4841006;29;20049;-76
2021/09/28 04:21:37;;;;;;;10.80;1.85;;;13.50;99.90;;;;;;4840917;29;20057;-76
2021/09/28 04:24:03;;;;;;;9.50;1.70;;;13.60;99.90;;;;;;4841091;29;20029;-76
2021/09/28 04:26:29;;;;;;;13.18;2.50;;;13.60;99.90;;;;;;4841060;29;20061;-77
2021/09/28 04:28:55;;;;;;;11.95;2.05;;;13.50;99.90;;;;;;4840825;29;20508;-76
2021/09/28 04:31:20;;;;;;;12.68;1.70;;;13.60;99.90;;;;;;4841024;29;20499;-76
2021/09/28 04:33:46;;;;;;;11.90;1.80;;;13.50;99.90;;;;;;4840849;29;20026;-76
2021/09/28 04:36:12;;;;;;;11.23;2.05;;;13.50;99.90;;;;;;4840388;29;20480;-76
2021/09/28 04:38:38;;;;;;;13.00;2.45;;;13.50;99.90;;;;;;4840495;29;20022;-76
2021/09/28 04:41:04;;;;;;;12.13;1.80;;;13.50;99.90;;;;;;4838942;29;20049;-76
2021/09/28 04:43:30;;;;;;;10.55;2.00;;;13.50;99.90;;;;;;4839698;29;20022;-76
2021/09/28 04:45:56;;;;;;;7.35;1.77;;;13.50;99.90;;;;;;4840531;29;20128;-76
2021/09/28 04:48:21;;;;;;;15.73;1.98;;;13.50;99.90;;;;;;4823582;29;20116;-76
2021/09/28 04:50:49;;;;;;;13.50;1.50;;;13.50;99.90;;;;;;4839776;29;20404;-76
2021/09/28 04:53:15;;;;;;;13.32;1.85;;;13.50;99.90;;;;;;4839733;29;20018;-76
2021/09/28 04:55:41;;;;;;;10.50;1.83;;;13.50;99.90;;;;;;4839878;29;20030;-76
2021/09/28 04:58:06;;;;;;;7.15;1.67;;;13.50;99.90;;;;;;4840203;29;20028;-76
2021/09/28 05:00:32;;;;;;;9.57;2.13;;;13.50;99.90;;;;;;4840244;29;20466;-76
2021/09/28 05:02:58;;;;;;;9.00;1.70;;;13.50;99.90;;;;;;4840964;29;20029;-77
2021/09/28 05:05:24;;;;;;;12.27;2.13;;;13.50;99.90;;;;;;4840246;29;20086;-77
2021/09/28 05:07:50;;;;;;;12.50;1.73;;;13.50;99.90;;;;;;4840124;29;20022;-77
2021/09/28 05:10:15;;;;;;;6.40;1.63;;;13.40;99.90;;;;;;4840079;29;20487;-76
2021/09/28 05:12:41;;;;;;;14.18;2.55;;;13.40;99.90;;;;;;4840278;29;20064;-76
2021/09/28 05:15:07;;;;;;;11.05;2.03;;;13.30;99.90;;;;;;4840010;29;20082;-76
2021/09/28 05:17:35;;;;;;;13.90;1.83;;;13.30;99.90;;;;;;4839852;29;20109;-77
2021/09/28 05:20:02;;;;;;;8.85;1.65;;;13.30;99.90;;;;;;4823623;29;20564;-77
2021/09/28 05:22:28;;;;;;;9.55;1.70;;;13.20;99.90;;;;;;4840016;29;20022;-77
2021/09/28 05:24:54;;;;;;;7.93;1.85;;;13.20;99.90;;;;;;4839858;29;20487;-76
2021/09/28 05:27:19;;;;;;;12.77;1.63;;;13.20;99.90;;;;;;4839895;29;20026;-76
2021/09/28 05:29:45;;;;;;;10.15;1.73;;;13.10;99.90;;;;;;4839547;29;20041;-76
2021/09/28 05:32:11;;;;;;;11.60;1.75;;;13.10;99.90;;;;;;4839895;29;20105;-76
2021/09/28 05:34:37;;;;;;;8.48;1.58;;;13.20;99.90;;;;;;4838270;29;20567;-76
2021/09/28 05:37:03;;;;;;;13.55;2.33;;;13.20;99.90;;;;;;4841300;29;20030;-76
2021/09/28 05:39:29;;;;;;;7.55;1.83;;;13.20;99.90;;;;;;4839777;29;20108;-76
2021/09/28 05:41:55;;;;;;;16.58;2.75;;;13.20;99.90;;;;;;4838235;29;20057;-76
2021/09/28 05:44:20;;;;;;;11.00;2.28;;;13.10;99.90;;;;;;4839923;29;20038;-76
2021/09/28 05:46:46;;;;;;;10.57;1.77;;;13.10;99.90;;;;;;4837854;29;20022;-76
2021/09/28 05:49:12;;;;;;;16.73;2.00;;;13.10;99.90;;;;;;4838466;29;20034;-77
2021/09/28 05:51:37;;;;;;;7.28;1.63;;;13.00;99.90;;;;;;4839329;29;20377;-77
2021/09/28 05:54:05;;;;;;;11.70;2.00;;;13.00;99.90;;;;;;4839020;29;20026;-76
2021/09/28 05:56:31;;;;;;;15.57;1.95;;;13.00;99.90;;;;;;4839503;29;20026;-77
2021/09/28 05:58:57;;;;;;;11.00;2.17;;;12.90;99.90;;;;;;4839448;29;20480;-76
2021/09/28 06:01:22;;;;;;;12.70;2.35;;;12.90;99.90;;;;;;4839831;29;20083;-77
2021/09/28 06:03:48;;;;;;;11.43;1.95;;;12.90;99.90;;;;;;4839209;29;20117;-77
2021/09/28 06:06:14;;;;;;;10.30;1.90;;;12.80;99.90;;;;;;4839353;29;20547;-77
2021/09/28 06:08:40;;;;;;;8.50;1.60;;;12.80;99.90;;;;;;4839194;29;20112;-76
2021/09/28 06:11:06;;;;;;;10.60;2.88;;;12.80;99.90;;;;;;4828859;29;20113;-77
2021/09/28 06:13:31;;;;;;;13.68;2.00;;;12.80;99.90;;;;;;4839448;29;20110;-77
2021/09/28 06:15:57;;;;;;;14.73;2.25;;;12.80;99.90;;;;;;4839330;29;20056;-77
2021/09/28 06:18:23;;;;;;;10.95;2.25;;;12.90;99.90;;;;;;4839561;29;20027;-77
2021/09/28 06:20:49;;;;;;;7.88;1.92;;;12.90;99.90;;;;;;4838861;29;20034;-77
2021/09/28 06:23:15;;;;;;;10.20;1.70;;;12.90;99.90;;;;;;4839485;29;20018;-77
2021/09/28 06:25:40;;;;;;;14.90;2.28;;;13.00;99.90;;;;;;4839227;29;20038;-77
2021/09/28 06:28:06;;;;;;;16.33;2.45;;;13.00;99.90;;;;;;4839489;29;20395;-77
2021/09/28 06:30:32;;;;;;;13.93;2.03;;;13.00;99.90;;;;;;4839061;29;20053;-77
2021/09/28 06:32:57;;;;;;;13.18;1.90;;;13.10;99.90;;;;;;4839342;29;20022;-77
2021/09/28 06:35:24;;;;;;;12.98;2.10;;;13.20;99.90;;;;;;4822868;29;20025;-77
2021/09/28 06:37:50;;;;;;;21.05;2.35;;;13.20;99.90;;;;;;4838983;29;20031;-77
2021/09/28 06:40:16;;;;;;;12.75;2.63;;;13.30;99.90;;;;;;4839383;29;20037;-77
2021/09/28 06:42:41;;;;;;;16.88;2.38;;;13.40;99.90;;;;;;4839311;29;20038;-77
2021/09/28 06:45:07;;;;;;;12.60;2.17;;;13.40;99.90;;;;;;4839182;29;20029;-77
2021/09/28 06:47:34;;;;;;;21.58;2.35;;;13.50;99.90;;;;;;4839452;29;20121;-78
2021/09/28 06:50:00;;;;;;;14.40;2.75;;;13.70;99.90;;;;;;4839069;29;20038;-77
2021/09/28 06:52:26;;;;;;;18.08;2.63;;;13.70;99.90;;;;;;4839362;29;20026;-78
2021/09/28 06:54:51;;;;;;;14.63;2.75;;;13.70;99.90;;;;;;4839385;29;20034;-78
2021/09/28 06:57:17;;;;;;;15.82;2.67;;;13.70;99.90;;;;;;4839330;29;20285;-78
2021/09/28 06:59:43;;;;;;;14.70;2.67;;;13.80;99.90;;;;;;4839128;29;20040;-78
2021/09/28 07:02:09;;;;;;;10.98;2.10;;;13.90;99.90;;;;;;4819447;29;20445;-78
2021/09/28 07:04:34;;;;;;;13.98;2.33;;;14.00;99.90;;;;;;4830546;29;20485;-78
2021/09/28 07:07:02;;;;;;;14.27;2.83;;;13.90;99.90;;;;;;4841808;29;20060;-77
2021/09/28 07:09:28;;;;;;;15.85;2.05;;;14.00;99.90;;;;;;4842326;29;20055;-77
2021/09/28 07:11:53;;;;;;;13.25;2.10;;;14.10;99.90;;;;;;4842518;29;20591;-77
2021/09/28 07:14:19;;;;;;;20.45;2.13;;;14.20;99.90;;;;;;4842150;29;20050;-78
2021/09/28 07:16:45;;;;;;;15.35;2.30;;;14.10;99.90;;;;;;4842632;29;20022;-78
2021/09/28 07:19:11;;;;;;;18.33;2.45;;;14.00;99.90;;;;;;4841845;29;20081;-77
2021/09/28 07:21:37;;;;;;;9.35;2.13;;;14.00;99.90;;;;;;4841915;29;20026;-78
2021/09/28 07:24:04;;;;;;;14.35;2.38;;;14.20;99.90;;;;;;4842320;29;20492;-78
2021/09/28 07:26:30;;;;;;;16.60;1.92;;;14.20;99.90;;;;;;4841997;29;20536;-78
2021/09/28 07:28:55;;;;;;;12.73;2.63;;;14.20;99.90;;;;;;4841889;29;20069;-78
2021/09/28 07:31:21;;;;;;;13.82;1.95;;;14.30;99.90;;;;;;4842010;29;20036;-78
2021/09/28 07:33:47;;;;;;;14.13;2.30;;;14.40;99.90;;;;;;4841881;29;20166;-78
2021/09/28 07:36:12;;;;;;;13.82;1.92;;;14.50;99.90;;;;;;4841440;29;20132;-78
2021/09/28 07:38:40;;;;;;;14.20;1.85;;;14.60;99.90;;;;;;4841788;29;20038;-78
2021/09/28 07:41:06;;;;;;;13.90;1.83;;;14.80;99.90;;;;;;4841869;29;20030;-78
2021/09/28 07:43:33;;;;;;;11.70;1.67;;;14.90;99.90;;;;;;4821869;29;20043;-78
2021/09/28 07:45:59;;;;;;;10.20;2.03;;;15.10;99.90;;;;;;4834200;29;20373;-78
2021/09/28 07:48:25;;;;;;;14.95;2.30;;;15.10;99.90;;;;;;4841599;29;20029;-78
2021/09/28 07:50:51;;;;;;;12.35;1.80;;;15.30;99.90;;;;;;4841900;29;20081;-78
2021/09/28 07:53:17;;;;;;;16.10;2.20;;;15.40;99.90;;;;;;4841719;29;20037;-79
2021/09/28 07:55:42;;;;;;;10.57;2.20;;;15.60;99.90;;;;;;4841515;29;20176;-78
2021/09/28 07:58:08;;;;;;;13.88;2.90;;;15.60;99.90;;;;;;4841588;29;20026;-78
2021/09/28 08:00:34;;;;;;;15.30;2.72;;;15.70;99.90;;;;;;4824774;29;20083;-78
2021/09/28 08:03:01;;;;;;;17.70;3.00;;;15.80;99.90;;;;;;4841764;29;20037;-79
2021/09/28 08:05:27;;;;;;;12.85;2.63;;;15.80;99.90;;;;;;4841343;29;20101;-78
2021/09/28 08:07:53;;;;;;;12.43;2.80;;;15.90;99.90;;;;;;4841383;29;20492;-78
2021/09/28 08:10:19;;;;;;;17.60;2.22;;;15.90;99.90;;;;;;4841178;29;20400;-78
2021/09/28 08:12:46;;;;;;;9.75;2.63;;;15.90;99.90;;;;;;4841190;29;20280;-78
2021/09/28 08:15:11;;;;;;;13.38;1.85;;;16.00;99.90;;;;;;4840845;29;20089;-78
2021/09/28 08:17:38;;;;;;;14.48;2.08;;;16.10;99.90;;;;;;4840793;29;20115;-78
2021/09/28 08:20:08;;;;;;;12.88;2.40;;;16.00;99.90;;;;;;4841397;29;20073;-79
2021/09/28 08:22:37;;;;;;;19.33;2.40;;;16.00;99.90;;;;;;4841195;29;20035;-78
2021/09/28 08:25:08;;;;;;;14.65;2.60;;;16.00;99.90;;;;;;4821961;29;20400;-78
2021/09/28 08:30:18;;;;;;;14.52;2.33;;;16.30;99.90;;;;;;4840968;29;20068;-78
2021/09/28 08:32:44;;;;;;;10.73;2.25;;;16.50;99.90;;;;;;4840697;29;20492;-78
2021/09/28 08:35:09;;;;;;;10.35;2.22;;;16.70;99.90;;;;;;4840737;29;20026;-78
2021/09/28 08:37:35;;;;;;;13.30;2.38;;;16.90;99.90;;;;;;4841218;29;20423;-79
2021/09/28 08:40:02;;;;;;;11.00;2.20;;;17.10;99.90;;;;;;4840691;29;20037;-78
2021/09/28 08:42:28;;;;;;;8.93;2.00;;;17.30;99.90;;;;;;4841018;29;20025;-78
2021/09/28 08:44:55;;;;;;;12.52;2.17;;;17.20;99.90;;;;;;4840467;29;20058;-78
2021/09/28 08:47:44;;;;;;;12.95;2.00;;;17.40;99.90;;;;;;4841110;29;20022;-78
2021/09/28 08:50:18;;;;;;;10.52;2.42;;;17.50;99.90;;;;;;4840305;29;20037;-78
2021/09/28 08:52:46;;;;;;;9.38;2.17;;;17.60;99.90;;;;;;4840578;29;20034;-78
2021/09/28 08:55:12;;;;;;;13.07;2.55;;;17.70;99.90;;;;;;4840683;29;20121;-79
2021/09/28 08:57:39;;;;;;;7.90;1.90;;;17.80;99.90;;;;;;4840675;29;20101;-79
2021/09/28 09:00:16;;;;;;;12.27;1.95;;;17.80;99.90;;;;;;4823322;29;20038;-78
2021/09/28 09:02:47;;;;;;;11.85;1.52;;;17.90;99.90;;;;;;4842012;29;20046;-79
2021/09/28 09:05:14;;;;;;;12.68;2.20;;;18.10;99.90;;;;;;4841337;29;20034;-78
2021/09/28 09:07:41;;;;;;;10.07;1.52;;;18.20;99.90;;;;;;4841478;29;20026;-78
2021/09/28 09:10:09;;;;;;;11.90;1.73;;;18.30;99.90;;;;;;4840628;29;20045;-78
2021/09/28 09:12:39;;;;;;;11.00;2.08;;;18.40;99.90;;;;;;4840619;29;20444;-78
2021/09/28 09:15:37;;;;;;;9.02;1.80;;;18.40;99.90;;;;;;4840563;29;20136;-78
2021/09/28 09:18:05;;;;;;;13.88;1.75;;;18.60;99.90;;;;;;4820966;29;20038;-78
2021/09/28 09:20:40;;;;;;;12.75;1.83;;;18.80;99.90;;;;;;4837258;29;20033;-78
2021/09/28 09:23:27;;;;;;;9.18;2.08;;;19.00;99.90;;;;;;4841807;29;20101;-78
2021/09/28 09:26:04;;;;;;;15.10;1.95;;;19.20;99.90;;;;;;4840524;29;20032;-78
2021/09/28 09:28:32;;;;;;;11.20;1.80;;;19.20;99.90;;;;;;4839737;29;20026;-79
2021/09/28 09:31:09;;;;;;;11.30;2.08;;;19.30;99.90;;;;;;4839464;29;20026;-78
2021/09/28 09:33:37;;;;;;;10.85;1.98;;;19.30;99.90;;;;;;4840136;29;20037;-79
2021/09/28 09:36:03;;;;;;;10.80;1.95;;;19.40;99.90;;;;;;4839898;29;20384;-78
2021/09/28 09:38:28;;;;;;;9.75;1.98;;;19.40;99.90;;;;;;4840514;29;20036;-78
2021/09/28 09:40:54;;;;;;;12.23;2.17;;;19.50;99.90;;;;;;4840066;29;20025;-78
2021/09/28 09:43:32;;;;;;;10.55;1.80;;;19.40;99.90;;;;;;4839875;29;20030;-78
2021/09/28 09:46:18;;;;;;;12.98;2.15;;;19.50;99.90;;;;;;4839911;29;20026;-79
2021/09/28 11:14:48;;;;;;;13.85;2.00;;;20.00;99.90;;;;;;4839712;29;20060;-78
2021/09/28 11:17:16;;;;;;;11.43;2.17;;;20.20;99.90;;;;;;4828942;29;20407;-80
2021/09/28 11:19:44;;;;;;;16.48;1.90;;;20.50;99.90;;;;;;4842822;29;20026;-81
2021/09/28 11:22:19;;;;;;;13.32;2.13;;;20.50;99.90;;;;;;4841629;29;20101;-79
2021/09/28 11:24:45;;;;;;;11.50;1.73;;;20.40;99.90;;;;;;4842154;29;20105;-79
2021/09/28 11:27:11;;;;;;;9.77;1.95;;;20.30;99.90;;;;;;4842218;29;20488;-79
2021/09/28 11:29:40;;;;;;;16.67;2.08;;;20.20;99.90;;;;;;4825629;29;20068;-79
2021/09/28 11:32:06;;;;;;;13.18;1.83;;;20.00;99.90;;;;;;4841109;29;20139;-79
2021/09/28 11:34:34;;;;;;;13.20;1.90;;;20.10;99.90;;;;;;4838777;29;20423;-79
2021/09/28 11:37:04;;;;;;;14.85;2.20;;;20.20;99.90;;;;;;4838435;29;20561;-79
2021/09/28 11:39:43;;;;;;;12.50;2.10;;;20.20;99.90;;;;;;4833303;29;20038;-79
2021/09/28 11:42:10;;;;;;;8.35;1.73;;;20.40;99.90;;;;;;4840738;29;20222;-79
2021/09/28 11:44:45;;;;;;;8.98;1.83;;;20.30;99.90;;;;;;4832362;29;20117;-79
2021/09/28 11:47:23;;;;;;;7.30;1.50;;;20.50;99.90;;;;;;4841192;29;20105;-79
2021/09/28 11:49:55;;;;;;;8.43;1.70;;;20.40;99.90;;;;;;4836154;29;20510;-79
2021/09/28 11:52:22;;;;;;;13.52;2.05;;;20.40;99.90;;;;;;4829451;29;20492;-79
2021/09/28 11:54:49;;;;;;;9.32;1.60;;;20.30;99.90;;;;;;4841429;29;20041;-79
2021/09/28 11:57:16;;;;;;;11.40;2.10;;;20.40;99.90;;;;;;4841236;29;20113;-79
2021/09/28 11:59:43;;;;;;;10.00;1.80;;;20.60;99.90;;;;;;4841453;29;20048;-79
2021/09/28 12:02:08;;;;;;;9.43;1.50;;;20.70;99.90;;;;;;4840187;29;20503;-79
2021/09/28 12:05:53;;;;;;;10.02;2.10;;;21.00;99.90;;;;;;4840645;29;20030;-79
2021/09/28 12:10:19;;;;;;;9.88;1.55;;;21.10;98.30;;;;;;4837519;29;20038;-79
2021/09/28 12:12:46;;;;;;;7.88;1.42;;;20.90;99.00;;;;;;4841048;29;20029;-79
2021/09/28 12:15:12;;;;;;;12.23;1.75;;;21.00;99.70;;;;;;4839615;29;20545;-79
2021/09/28 12:17:42;;;;;;;14.43;1.77;;;21.00;99.50;;;;;;4835912;29;20514;-79
2021/09/28 12:20:19;;;;;;;9.55;1.55;;;21.10;99.50;;;;;;4835094;29;20078;-79
2021/09/28 12:22:50;;;;;;;15.82;2.40;;;21.20;99.70;;;;;;4839910;29;20026;-79
2021/09/28 12:25:29;;;;;;;13.45;1.65;;;21.30;99.90;;;;;;4833632;29;20102;-79
2021/09/28 12:28:07;;;;;;;18.08;1.85;;;21.20;99.70;;;;;;4840690;29;20030;-79
2021/09/28 12:30:36;;;;;;;12.07;2.10;;;20.90;99.90;;;;;;4840848;29;20535;-79
2021/09/28 12:33:05;;;;;;;10.85;1.85;;;20.70;99.90;;;;;;4840530;29;20074;-79
2021/09/28 12:35:36;;;;;;;9.80;1.58;;;20.50;99.90;;;;;;4840721;29;20029;-79
2021/09/28 12:38:05;;;;;;;9.45;1.40;;;20.50;99.90;;;;;;4840850;29;20484;-79
2021/09/28 12:40:33;;;;;;;4.57;1.30;;;20.50;99.90;;;;;;4821617;29;20034;-79
2021/09/28 12:43:03;;;;;;;12.05;2.25;;;20.80;99.90;;;;;;4835033;29;20030;-79
2021/09/28 12:45:40;;;;;;;9.55;1.60;;;21.00;99.90;;;;;;4839438;29;20749;-79
2021/09/28 12:48:07;;;;;;;8.70;1.98;;;21.10;99.90;;;;;;4840327;29;20026;-79
2021/09/28 12:50:34;;;;;;;8.00;1.60;;;21.00;99.90;;;;;;4840010;29;20046;-80
2021/09/28 12:53:02;;;;;;;11.65;1.67;;;21.20;99.90;;;;;;4840398;29;20519;-79
2021/09/28 12:55:29;;;;;;;7.63;1.77;;;21.60;99.50;;;;;;4840147;29;20030;-79
2021/09/28 12:57:55;;;;;;;7.75;1.45;;;21.50;98.40;;;;;;4840095;29;20034;-79
2021/09/28 13:00:22;;;;;;;11.32;1.95;;;21.50;99.60;;;;;;4840386;29;20040;-79
2021/09/28 13:02:48;;;;;;;10.98;1.85;;;21.50;99.30;;;;;;4840464;29;20022;-79
2021/09/28 13:05:21;;;;;;;8.98;1.92;;;21.60;99.00;;;;;;4834596;29;20033;-79
2021/09/28 13:07:52;;;;;;;10.65;1.60;;;21.70;98.00;;;;;;4835088;29;20503;-79
2021/09/28 13:10:22;;;;;;;8.00;1.92;;;21.50;99.90;;;;;;4833824;29;20037;-79
2021/09/28 13:12:49;;;;;;;13.38;2.08;;;21.90;99.50;;;;;;4840022;29;20515;-79
2021/09/28 13:15:19;;;;;;;7.65;1.60;;;21.90;97.90;;;;;;4840099;29;20081;-79
2021/09/28 13:17:45;;;;;;;8.70;1.40;;;22.20;97.50;;;;;;4839866;29;20033;-78
2021/09/28 13:20:12;;;;;;;12.10;1.80;;;22.40;94.90;;;;;;4839856;29;20125;-79
2021/09/28 13:22:38;;;;;;;9.98;1.65;;;22.40;95.60;;;;;;4839473;29;20029;-79
2021/09/28 13:25:05;;;;;;;7.05;1.50;;;22.50;95.90;;;;;;4839946;29;20070;-79
2021/09/28 13:27:31;;;;;;;9.52;1.63;;;22.50;94.20;;;;;;4839842;29;20104;-79
2021/09/28 13:30:00;;;;;;;10.95;1.67;;;22.60;94.80;;;;;;4839820;29;20645;-79
2021/09/28 13:32:25;;;;;;;8.48;1.17;;;22.60;92.40;;;;;;4839746;29;20029;-79
2021/09/28 13:34:51;;;;;;;11.05;1.70;;;22.50;91.70;;;;;;4839555;29;20034;-79
2021/09/28 13:37:22;;;;;;;11.88;2.00;;;22.50;92.60;;;;;;4839749;29;20026;-78
2021/09/28 13:39:49;;;;;;;8.55;2.03;;;22.40;92.90;;;;;;4839464;29;20026;-78
2021/09/28 13:42:15;;;;;;;9.05;1.65;;;22.30;94.40;;;;;;4839096;29;20484;-79
2021/09/28 13:44:40;;;;;;;8.25;1.48;;;22.40;94.30;;;;;;4832335;29;20049;-78
2021/09/28 13:47:07;;;;;;;9.52;1.95;;;22.50;93.40;;;;;;4839795;29;20026;-79
2021/09/28 13:49:32;;;;;;;6.40;1.63;;;22.40;93.50;;;;;;4833635;29;20121;-78
2021/09/28 13:51:58;;;;;;;11.65;1.90;;;22.30;94.80;;;;;;4839057;29;20113;-79
2021/09/28 13:54:24;;;;;;;9.07;1.85;;;22.30;94.80;;;;;;4839707;29;20030;-79
2021/09/28 13:56:50;;;;;;;7.13;1.27;;;22.60;95.10;;;;;;4834509;29;20037;-79
2021/09/28 13:59:15;;;;;;;9.15;1.70;;;22.80;93.60;;;;;;4839291;29;20029;-79
2021/09/28 14:01:41;;;;;;;8.25;1.77;;;22.80;92.80;;;;;;4834663;29;20159;-79
2021/09/28 14:04:07;;;;;;;11.65;2.20;;;22.90;92.40;;;;;;4837766;29;20072;-79
2021/09/28 14:06:33;;;;;;;6.82;1.92;;;23.30;93.70;;;;;;4839214;29;20055;-79
2021/09/28 14:08:58;;;;;;;12.27;2.00;;;23.40;94.00;;;;;;4839020;29;20124;-79
2021/09/28 14:11:24;;;;;;;7.25;1.20;;;23.40;93.20;;;;;;4835819;29;20094;-79